sensor_id;sensor_type;location;lat;lon;timestamp;P1;durP1;ratioP1;P2;durP2;ratioP2
10050;SDS011;5065;46.942;7.432;2023-05-16T00:02:19;4.40;;;4.00;;
10050;SDS011;5065;46.942;7.432;2023-05-16T00:04:46;5.77;;;4.00;;
10050;SDS011;5065;46.942;7.432;2023-05-16T00:07:13;5.23;;;4.27;;
10050;SDS011;5065;46.942;7.432;2023-05-16T00:09:42;6.80;;;4.60;;
10050;SDS011;5065;46.942;7.432;2023-05-16T00:12:12;5.70;;;4.43;;
10050;SDS011;5065;46.942;7.432;2023-05-16T00:14:39;4.77;;;4.00;;
10050;SDS011;5065;46.942;7.432;2023-05-16T00:17:06;5.93;;;4.07;;
10050;SDS011;5065;46.942;7.432;2023-05-16T00:19:36;4.67;;;3.70;;
10050;SDS011;5065;46.942;7.432;2023-05-16T00:22:04;6.00;;;4.07;;
10050;SDS011;5065;46.942;7.432;2023-05-16T00:24:32;4.47;;;3.90;;
10050;SDS011;5065;46.942;7.432;2023-05-16T00:27:01;5.60;;;3.73;;
10050;SDS011;5065;46.942;7.432;2023-05-16T00:29:29;4.30;;;3.90;;
10050;SDS011;5065;46.942;7.432;2023-05-16T00:31:56;4.50;;;3.90;;
10050;SDS011;5065;46.942;7.432;2023-05-16T00:34:23;4.37;;;3.73;;
10050;SDS011;5065;46.942;7.432;2023-05-16T00:36:50;5.03;;;4.13;;
10050;SDS011;5065;46.942;7.432;2023-05-16T00:39:18;4.40;;;3.90;;
10050;SDS011;5065;46.942;7.432;2023-05-16T00:41:45;4.93;;;4.13;;
10050;SDS011;5065;46.942;7.432;2023-05-16T00:44:14;4.27;;;3.53;;
10050;SDS011;5065;46.942;7.432;2023-05-16T00:46:41;9.33;;;4.13;;
10050;SDS011;5065;46.942;7.432;2023-05-16T00:49:08;6.47;;;3.90;;
10050;SDS011;5065;46.942;7.432;2023-05-16T00:51:36;8.57;;;3.97;;
10050;SDS011;5065;46.942;7.432;2023-05-16T00:54:04;4.63;;;3.90;;
10050;SDS011;5065;46.942;7.432;2023-05-16T00:56:32;5.27;;;4.07;;
10050;SDS011;5065;46.942;7.432;2023-05-16T00:59:00;4.07;;;3.70;;
10050;SDS011;5065;46.942;7.432;2023-05-16T01:01:29;4.93;;;4.43;;
10050;SDS011;5065;46.942;7.432;2023-05-16T01:03:57;7.20;;;4.60;;
10050;SDS011;5065;46.942;7.432;2023-05-16T01:06:25;5.07;;;3.87;;
10050;SDS011;5065;46.942;7.432;2023-05-16T01:08:53;7.50;;;4.77;;
10050;SDS011;5065;46.942;7.432;2023-05-16T01:11:21;4.90;;;4.50;;
10050;SDS011;5065;46.942;7.432;2023-05-16T01:13:54;7.00;;;4.33;;
10050;SDS011;5065;46.942;7.432;2023-05-16T01:16:32;5.10;;;4.60;;
10050;SDS011;5065;46.942;7.432;2023-05-16T01:19:06;4.30;;;3.90;;
10050;SDS011;5065;46.942;7.432;2023-05-16T01:21:47;9.03;;;4.43;;
10050;SDS011;5065;46.942;7.432;2023-05-16T01:24:21;10.17;;;4.40;;
10050;SDS011;5065;46.942;7.432;2023-05-16T01:26:54;5.53;;;4.30;;
10050;SDS011;5065;46.942;7.432;2023-05-16T01:29:23;4.63;;;4.23;;
10050;SDS011;5065;46.942;7.432;2023-05-16T01:31:51;7.27;;;3.80;;
10050;SDS011;5065;46.942;7.432;2023-05-16T01:34:18;5.10;;;4.00;;
10050;SDS011;5065;46.942;7.432;2023-05-16T01:36:47;5.53;;;4.10;;
10050;SDS011;5065;46.942;7.432;2023-05-16T01:39:21;4.27;;;3.63;;
10050;SDS011;5065;46.942;7.432;2023-05-16T01:42:02;5.70;;;4.13;;
10050;SDS011;5065;46.942;7.432;2023-05-16T01:44:33;3.87;;;3.53;;
10050;SDS011;5065;46.942;7.432;2023-05-16T01:47:05;5.30;;;4.07;;
10050;SDS011;5065;46.942;7.432;2023-05-16T01:49:38;5.60;;;4.07;;
10050;SDS011;5065;46.942;7.432;2023-05-16T01:52:12;7.47;;;3.93;;
10050;SDS011;5065;46.942;7.432;2023-05-16T01:54:43;4.30;;;3.90;;
10050;SDS011;5065;46.942;7.432;2023-05-16T01:57:14;4.67;;;3.63;;
10050;SDS011;5065;46.942;7.432;2023-05-16T01:59:42;4.40;;;4.00;;
10050;SDS011;5065;46.942;7.432;2023-05-16T02:02:10;4.40;;;4.00;;
10050;SDS011;5065;46.942;7.432;2023-05-16T02:04:38;7.03;;;4.30;;
10050;SDS011;5065;46.942;7.432;2023-05-16T02:07:05;4.57;;;3.93;;
10050;SDS011;5065;46.942;7.432;2023-05-16T02:09:32;5.43;;;4.63;;
10050;SDS011;5065;46.942;7.432;2023-05-16T02:11:59;11.03;;;3.93;;
10050;SDS011;5065;46.942;7.432;2023-05-16T02:14:28;6.23;;;4.47;;
10050;SDS011;5065;46.942;7.432;2023-05-16T02:16:56;6.70;;;4.57;;
10050;SDS011;5065;46.942;7.432;2023-05-16T02:19:23;5.43;;;4.50;;
10050;SDS011;5065;46.942;7.432;2023-05-16T02:21:50;7.90;;;4.40;;
10050;SDS011;5065;46.942;7.432;2023-05-16T02:24:17;4.17;;;3.73;;
10050;SDS011;5065;46.942;7.432;2023-05-16T02:26:45;4.90;;;4.30;;
10050;SDS011;5065;46.942;7.432;2023-05-16T02:29:12;8.00;;;4.33;;
10050;SDS011;5065;46.942;7.432;2023-05-16T02:31:41;4.40;;;4.00;;
10050;SDS011;5065;46.942;7.432;2023-05-16T02:34:09;4.57;;;4.17;;
10050;SDS011;5065;46.942;7.432;2023-05-16T02:36:36;4.40;;;4.00;;
10050;SDS011;5065;46.942;7.432;2023-05-16T02:39:03;5.10;;;4.20;;
10050;SDS011;5065;46.942;7.432;2023-05-16T02:41:30;7.23;;;4.17;;
10050;SDS011;5065;46.942;7.432;2023-05-16T02:43:57;4.30;;;3.90;;
10050;SDS011;5065;46.942;7.432;2023-05-16T02:46:24;4.53;;;3.87;;
10050;SDS011;5065;46.942;7.432;2023-05-16T02:48:54;4.77;;;4.27;;
10050;SDS011;5065;46.942;7.432;2023-05-16T02:51:22;6.27;;;4.43;;
10050;SDS011;5065;46.942;7.432;2023-05-16T02:53:50;5.07;;;4.27;;
10050;SDS011;5065;46.942;7.432;2023-05-16T02:56:18;6.70;;;4.67;;
10050;SDS011;5065;46.942;7.432;2023-05-16T02:58:46;7.57;;;4.20;;
10050;SDS011;5065;46.942;7.432;2023-05-16T03:01:15;7.77;;;4.13;;
10050;SDS011;5065;46.942;7.432;2023-05-16T03:03:42;7.57;;;4.50;;
10050;SDS011;5065;46.942;7.432;2023-05-16T03:06:11;4.60;;;4.20;;
10050;SDS011;5065;46.942;7.432;2023-05-16T03:08:38;5.27;;;4.07;;
10050;SDS011;5065;46.942;7.432;2023-05-16T03:11:05;5.70;;;4.67;;
10050;SDS011;5065;46.942;7.432;2023-05-16T03:13:32;5.90;;;4.30;;
10050;SDS011;5065;46.942;7.432;2023-05-16T03:15:59;5.73;;;4.67;;
10050;SDS011;5065;46.942;7.432;2023-05-16T03:18:27;5.17;;;4.67;;
10050;SDS011;5065;46.942;7.432;2023-05-16T03:20:54;5.00;;;4.50;;
10050;SDS011;5065;46.942;7.432;2023-05-16T03:23:23;7.67;;;4.50;;
10050;SDS011;5065;46.942;7.432;2023-05-16T03:25:50;4.97;;;4.57;;
10050;SDS011;5065;46.942;7.432;2023-05-16T03:28:17;5.53;;;4.60;;
10050;SDS011;5065;46.942;7.432;2023-05-16T03:30:44;4.87;;;4.47;;
10050;SDS011;5065;46.942;7.432;2023-05-16T03:33:11;4.67;;;4.27;;
10050;SDS011;5065;46.942;7.432;2023-05-16T03:35:38;4.70;;;4.30;;
10050;SDS011;5065;46.942;7.432;2023-05-16T03:38:06;6.93;;;4.10;;
10050;SDS011;5065;46.942;7.432;2023-05-16T03:40:34;4.97;;;4.47;;
10050;SDS011;5065;46.942;7.432;2023-05-16T03:43:02;4.90;;;4.20;;
10050;SDS011;5065;46.942;7.432;2023-05-16T03:45:29;4.80;;;4.40;;
10050;SDS011;5065;46.942;7.432;2023-05-16T03:47:56;8.60;;;4.20;;
10050;SDS011;5065;46.942;7.432;2023-05-16T03:50:23;6.87;;;4.57;;
10050;SDS011;5065;46.942;7.432;2023-05-16T03:52:51;6.10;;;5.00;;
10050;SDS011;5065;46.942;7.432;2023-05-16T03:55:18;4.83;;;4.43;;
10050;SDS011;5065;46.942;7.432;2023-05-16T03:57:47;4.80;;;4.30;;
10050;SDS011;5065;46.942;7.432;2023-05-16T04:00:16;5.33;;;4.47;;
10050;SDS011;5065;46.942;7.432;2023-05-16T04:02:43;4.87;;;4.30;;
10050;SDS011;5065;46.942;7.432;2023-05-16T04:05:11;5.03;;;4.53;;
10050;SDS011;5065;46.942;7.432;2023-05-16T04:07:38;8.33;;;6.80;;
10050;SDS011;5065;46.942;7.432;2023-05-16T04:10:06;8.97;;;5.93;;
10050;SDS011;5065;46.942;7.432;2023-05-16T04:12:34;5.10;;;4.63;;
10050;SDS011;5065;46.942;7.432;2023-05-16T04:15:03;6.07;;;4.90;;
10050;SDS011;5065;46.942;7.432;2023-05-16T04:17:31;4.83;;;4.43;;
10050;SDS011;5065;46.942;7.432;2023-05-16T04:19:58;5.80;;;4.43;;
10050;SDS011;5065;46.942;7.432;2023-05-16T04:22:26;5.63;;;4.53;;
10050;SDS011;5065;46.942;7.432;2023-05-16T04:24:53;5.90;;;4.87;;
10050;SDS011;5065;46.942;7.432;2023-05-16T04:27:20;6.37;;;4.80;;
10050;SDS011;5065;46.942;7.432;2023-05-16T04:29:47;7.07;;;6.07;;
10050;SDS011;5065;46.942;7.432;2023-05-16T04:32:16;5.33;;;4.87;;
10050;SDS011;5065;46.942;7.432;2023-05-16T04:34:43;4.97;;;4.47;;
10050;SDS011;5065;46.942;7.432;2023-05-16T04:37:12;6.77;;;6.07;;
10050;SDS011;5065;46.942;7.432;2023-05-16T04:39:40;7.93;;;7.13;;
10050;SDS011;5065;46.942;7.432;2023-05-16T04:42:07;8.27;;;7.20;;
10050;SDS011;5065;46.942;7.432;2023-05-16T04:44:35;8.23;;;6.80;;
10050;SDS011;5065;46.942;7.432;2023-05-16T04:47:02;8.67;;;6.97;;
10050;SDS011;5065;46.942;7.432;2023-05-16T04:49:30;10.13;;;6.87;;
10050;SDS011;5065;46.942;7.432;2023-05-16T04:51:57;9.40;;;7.20;;
10050;SDS011;5065;46.942;7.432;2023-05-16T04:54:24;11.90;;;7.53;;
10050;SDS011;5065;46.942;7.432;2023-05-16T04:56:51;8.00;;;7.17;;
10050;SDS011;5065;46.942;7.432;2023-05-16T04:59:19;7.97;;;7.10;;
10050;SDS011;5065;46.942;7.432;2023-05-16T05:01:46;8.03;;;7.23;;
10050;SDS011;5065;46.942;7.432;2023-05-16T05:04:13;12.07;;;8.40;;
10050;SDS011;5065;46.942;7.432;2023-05-16T05:06:43;15.37;;;8.10;;
10050;SDS011;5065;46.942;7.432;2023-05-16T05:09:10;8.17;;;7.20;;
10050;SDS011;5065;46.942;7.432;2023-05-16T05:11:37;8.30;;;7.33;;
10050;SDS011;5065;46.942;7.432;2023-05-16T05:14:04;8.07;;;6.80;;
10050;SDS011;5065;46.942;7.432;2023-05-16T05:16:31;8.67;;;7.17;;
10050;SDS011;5065;46.942;7.432;2023-05-16T05:18:59;9.57;;;6.03;;
10050;SDS011;5065;46.942;7.432;2023-05-16T05:21:26;8.50;;;7.47;;
10050;SDS011;5065;46.942;7.432;2023-05-16T05:23:56;7.20;;;6.60;;
10050;SDS011;5065;46.942;7.432;2023-05-16T05:26:23;6.83;;;6.17;;
10050;SDS011;5065;46.942;7.432;2023-05-16T05:28:50;10.07;;;6.87;;
10050;SDS011;5065;46.942;7.432;2023-05-16T05:31:17;9.17;;;6.13;;
10050;SDS011;5065;46.942;7.432;2023-05-16T05:33:45;7.77;;;6.57;;
10050;SDS011;5065;46.942;7.432;2023-05-16T05:36:12;7.60;;;6.37;;
10050;SDS011;5065;46.942;7.432;2023-05-16T05:38:39;7.17;;;6.53;;
10050;SDS011;5065;46.942;7.432;2023-05-16T05:41:07;12.57;;;6.13;;
10050;SDS011;5065;46.942;7.432;2023-05-16T05:43:36;7.53;;;6.53;;
10050;SDS011;5065;46.942;7.432;2023-05-16T05:46:03;7.40;;;6.50;;
10050;SDS011;5065;46.942;7.432;2023-05-16T05:48:31;6.13;;;5.53;;
10050;SDS011;5065;46.942;7.432;2023-05-16T05:50:58;7.87;;;5.97;;
10050;SDS011;5065;46.942;7.432;2023-05-16T05:53:25;7.30;;;5.97;;
10050;SDS011;5065;46.942;7.432;2023-05-16T05:55:52;9.60;;;6.37;;
10050;SDS011;5065;46.942;7.432;2023-05-16T05:58:21;7.30;;;6.60;;
10050;SDS011;5065;46.942;7.432;2023-05-16T06:00:48;9.30;;;7.87;;
10050;SDS011;5065;46.942;7.432;2023-05-16T06:03:15;9.70;;;8.80;;
10050;SDS011;5065;46.942;7.432;2023-05-16T06:05:42;7.83;;;6.90;;
10050;SDS011;5065;46.942;7.432;2023-05-16T06:08:10;8.37;;;6.70;;
10050;SDS011;5065;46.942;7.432;2023-05-16T06:10:37;7.93;;;6.80;;
10050;SDS011;5065;46.942;7.432;2023-05-16T06:13:04;7.93;;;6.70;;
10050;SDS011;5065;46.942;7.432;2023-05-16T06:15:35;7.40;;;6.57;;
10050;SDS011;5065;46.942;7.432;2023-05-16T06:18:02;7.10;;;6.40;;
10050;SDS011;5065;46.942;7.432;2023-05-16T06:20:29;8.63;;;7.57;;
10050;SDS011;5065;46.942;7.432;2023-05-16T06:22:57;12.57;;;8.00;;
10050;SDS011;5065;46.942;7.432;2023-05-16T06:25:24;17.90;;;8.13;;
10050;SDS011;5065;46.942;7.432;2023-05-16T06:27:51;8.80;;;6.90;;
10050;SDS011;5065;46.942;7.432;2023-05-16T06:30:18;12.03;;;8.60;;
10050;SDS011;5065;46.942;7.432;2023-05-16T06:32:47;11.33;;;8.70;;
10050;SDS011;5065;46.942;7.432;2023-05-16T06:35:14;12.07;;;8.50;;
10050;SDS011;5065;46.942;7.432;2023-05-16T06:37:42;11.67;;;7.73;;
10050;SDS011;5065;46.942;7.432;2023-05-16T06:40:09;9.27;;;7.67;;
10050;SDS011;5065;46.942;7.432;2023-05-16T06:42:37;8.97;;;7.30;;
10050;SDS011;5065;46.942;7.432;2023-05-16T06:45:04;13.57;;;8.60;;
10050;SDS011;5065;46.942;7.432;2023-05-16T06:47:32;9.53;;;8.50;;
10050;SDS011;5065;46.942;7.432;2023-05-16T06:50:01;13.83;;;8.67;;
10050;SDS011;5065;46.942;7.432;2023-05-16T06:52:29;9.83;;;8.40;;
10050;SDS011;5065;46.942;7.432;2023-05-16T06:54:56;11.23;;;8.23;;
10050;SDS011;5065;46.942;7.432;2023-05-16T06:57:23;18.50;;;8.60;;
10050;SDS011;5065;46.942;7.432;2023-05-16T06:59:50;11.73;;;8.80;;
10050;SDS011;5065;46.942;7.432;2023-05-16T07:02:17;17.57;;;8.90;;
10050;SDS011;5065;46.942;7.432;2023-05-16T07:04:44;10.90;;;8.93;;
10050;SDS011;5065;46.942;7.432;2023-05-16T07:07:13;14.33;;;11.93;;
10050;SDS011;5065;46.942;7.432;2023-05-16T07:09:40;16.60;;;10.77;;
10050;SDS011;5065;46.942;7.432;2023-05-16T07:12:08;15.63;;;12.57;;
10050;SDS011;5065;46.942;7.432;2023-05-16T07:14:35;12.80;;;10.27;;
10050;SDS011;5065;46.942;7.432;2023-05-16T07:17:02;12.17;;;10.70;;
10050;SDS011;5065;46.942;7.432;2023-05-16T07:19:30;13.17;;;10.10;;
10050;SDS011;5065;46.942;7.432;2023-05-16T07:21:57;12.83;;;9.70;;
10050;SDS011;5065;46.942;7.432;2023-05-16T07:24:25;11.30;;;10.07;;
10050;SDS011;5065;46.942;7.432;2023-05-16T07:26:52;12.00;;;8.90;;
10050;SDS011;5065;46.942;7.432;2023-05-16T07:29:19;12.27;;;9.10;;
10050;SDS011;5065;46.942;7.432;2023-05-16T07:31:47;12.87;;;10.63;;
10050;SDS011;5065;46.942;7.432;2023-05-16T07:34:15;14.47;;;10.73;;
10050;SDS011;5065;46.942;7.432;2023-05-16T07:36:42;20.57;;;14.33;;
10050;SDS011;5065;46.942;7.432;2023-05-16T07:39:09;11.80;;;9.40;;
10050;SDS011;5065;46.942;7.432;2023-05-16T07:41:38;16.60;;;10.60;;
10050;SDS011;5065;46.942;7.432;2023-05-16T07:44:05;23.67;;;18.50;;
10050;SDS011;5065;46.942;7.432;2023-05-16T07:46:32;13.40;;;11.03;;
10050;SDS011;5065;46.942;7.432;2023-05-16T07:48:59;14.67;;;10.27;;
10050;SDS011;5065;46.942;7.432;2023-05-16T07:51:26;14.90;;;10.53;;
10050;SDS011;5065;46.942;7.432;2023-05-16T07:53:54;12.97;;;11.27;;
10050;SDS011;5065;46.942;7.432;2023-05-16T07:56:21;15.67;;;10.73;;
10050;SDS011;5065;46.942;7.432;2023-05-16T07:58:50;11.83;;;10.67;;
10050;SDS011;5065;46.942;7.432;2023-05-16T08:01:17;13.40;;;11.67;;
10050;SDS011;5065;46.942;7.432;2023-05-16T08:03:46;13.17;;;11.43;;
10050;SDS011;5065;46.942;7.432;2023-05-16T08:06:13;19.67;;;11.33;;
10050;SDS011;5065;46.942;7.432;2023-05-16T08:08:40;13.53;;;10.80;;
10050;SDS011;5065;46.942;7.432;2023-05-16T08:11:07;17.27;;;10.93;;
10050;SDS011;5065;46.942;7.432;2023-05-16T08:13:35;13.93;;;11.20;;
10050;SDS011;5065;46.942;7.432;2023-05-16T08:16:04;13.30;;;10.97;;
10050;SDS011;5065;46.942;7.432;2023-05-16T08:18:31;14.67;;;11.13;;
10050;SDS011;5065;46.942;7.432;2023-05-16T08:20:58;11.43;;;10.23;;
10050;SDS011;5065;46.942;7.432;2023-05-16T08:23:27;13.47;;;9.90;;
10050;SDS011;5065;46.942;7.432;2023-05-16T08:25:54;10.67;;;9.57;;
10050;SDS011;5065;46.942;7.432;2023-05-16T08:28:21;12.73;;;9.53;;
10050;SDS011;5065;46.942;7.432;2023-05-16T08:30:48;13.17;;;10.63;;
10050;SDS011;5065;46.942;7.432;2023-05-16T08:33:17;9.17;;;8.27;;
10050;SDS011;5065;46.942;7.432;2023-05-16T08:35:44;10.17;;;7.20;;
10050;SDS011;5065;46.942;7.432;2023-05-16T08:38:12;7.93;;;7.23;;
10050;SDS011;5065;46.942;7.432;2023-05-16T08:40:41;8.20;;;7.13;;
10050;SDS011;5065;46.942;7.432;2023-05-16T08:43:09;8.30;;;6.73;;
10050;SDS011;5065;46.942;7.432;2023-05-16T08:45:37;6.30;;;5.37;;
10050;SDS011;5065;46.942;7.432;2023-05-16T08:48:05;7.27;;;5.20;;
10050;SDS011;5065;46.942;7.432;2023-05-16T08:50:36;5.50;;;4.83;;
10050;SDS011;5065;46.942;7.432;2023-05-16T08:53:04;9.97;;;6.57;;
10050;SDS011;5065;46.942;7.432;2023-05-16T08:55:33;5.90;;;4.20;;
10050;SDS011;5065;46.942;7.432;2023-05-16T08:58:01;4.03;;;3.63;;
10050;SDS011;5065;46.942;7.432;2023-05-16T09:00:29;6.67;;;3.97;;
10050;SDS011;5065;46.942;7.432;2023-05-16T09:02:57;5.17;;;3.53;;
10050;SDS011;5065;46.942;7.432;2023-05-16T09:05:24;7.80;;;3.87;;
10050;SDS011;5065;46.942;7.432;2023-05-16T09:07:54;3.70;;;3.40;;
10050;SDS011;5065;46.942;7.432;2023-05-16T09:10:21;9.03;;;3.90;;
10050;SDS011;5065;46.942;7.432;2023-05-16T09:12:48;4.53;;;4.13;;
10050;SDS011;5065;46.942;7.432;2023-05-16T09:15:17;6.70;;;4.53;;
10050;SDS011;5065;46.942;7.432;2023-05-16T09:17:45;9.47;;;4.47;;
10050;SDS011;5065;46.942;7.432;2023-05-16T09:20:13;7.67;;;4.20;;
10050;SDS011;5065;46.942;7.432;2023-05-16T09:22:49;6.20;;;3.93;;
10050;SDS011;5065;46.942;7.432;2023-05-16T09:25:19;5.50;;;3.97;;
10050;SDS011;5065;46.942;7.432;2023-05-16T09:27:47;6.03;;;4.20;;
10050;SDS011;5065;46.942;7.432;2023-05-16T09:30:20;4.47;;;4.07;;
10050;SDS011;5065;46.942;7.432;2023-05-16T09:32:49;5.93;;;4.33;;
10050;SDS011;5065;46.942;7.432;2023-05-16T09:35:18;4.67;;;4.10;;
10050;SDS011;5065;46.942;7.432;2023-05-16T09:37:46;4.97;;;4.10;;
10050;SDS011;5065;46.942;7.432;2023-05-16T09:40:14;5.97;;;4.70;;
10050;SDS011;5065;46.942;7.432;2023-05-16T09:42:46;6.00;;;4.20;;
10050;SDS011;5065;46.942;7.432;2023-05-16T09:45:17;4.90;;;4.40;;
10050;SDS011;5065;46.942;7.432;2023-05-16T09:47:46;6.10;;;5.07;;
10050;SDS011;5065;46.942;7.432;2023-05-16T09:50:13;4.53;;;4.07;;
10050;SDS011;5065;46.942;7.432;2023-05-16T09:52:42;5.23;;;4.57;;
10050;SDS011;5065;46.942;7.432;2023-05-16T09:55:09;8.67;;;6.73;;
10050;SDS011;5065;46.942;7.432;2023-05-16T09:57:37;11.50;;;4.30;;
10050;SDS011;5065;46.942;7.432;2023-05-16T10:00:09;5.27;;;4.67;;
10050;SDS011;5065;46.942;7.432;2023-05-16T10:02:40;6.23;;;4.80;;
10050;SDS011;5065;46.942;7.432;2023-05-16T10:05:08;4.67;;;4.03;;
10050;SDS011;5065;46.942;7.432;2023-05-16T10:07:35;5.60;;;4.23;;
10050;SDS011;5065;46.942;7.432;2023-05-16T10:10:05;7.03;;;4.40;;
10050;SDS011;5065;46.942;7.432;2023-05-16T10:12:33;4.97;;;4.47;;
10050;SDS011;5065;46.942;7.432;2023-05-16T10:15:04;6.60;;;4.67;;
10050;SDS011;5065;46.942;7.432;2023-05-16T10:17:34;5.10;;;4.60;;
10050;SDS011;5065;46.942;7.432;2023-05-16T10:20:04;5.50;;;4.97;;
10050;SDS011;5065;46.942;7.432;2023-05-16T10:22:34;10.57;;;4.97;;
10050;SDS011;5065;46.942;7.432;2023-05-16T10:25:07;6.53;;;5.50;;
10050;SDS011;5065;46.942;7.432;2023-05-16T10:27:41;7.40;;;6.20;;
10050;SDS011;5065;46.942;7.432;2023-05-16T10:30:09;8.80;;;5.00;;
10050;SDS011;5065;46.942;7.432;2023-05-16T10:32:38;7.70;;;5.67;;
10050;SDS011;5065;46.942;7.432;2023-05-16T10:35:06;6.50;;;5.87;;
10050;SDS011;5065;46.942;7.432;2023-05-16T10:37:35;7.57;;;5.60;;
10050;SDS011;5065;46.942;7.432;2023-05-16T10:40:03;6.07;;;5.53;;
10050;SDS011;5065;46.942;7.432;2023-05-16T10:42:33;6.53;;;5.50;;
10050;SDS011;5065;46.942;7.432;2023-05-16T10:47:52;6.80;;;6.07;;
10050;SDS011;5065;46.942;7.432;2023-05-16T10:50:32;8.67;;;6.63;;
10050;SDS011;5065;46.942;7.432;2023-05-16T10:53:11;8.43;;;7.10;;
10050;SDS011;5065;46.942;7.432;2023-05-16T10:55:39;7.60;;;6.63;;
10050;SDS011;5065;46.942;7.432;2023-05-16T10:58:11;9.53;;;7.80;;
10050;SDS011;5065;46.942;7.432;2023-05-16T11:00:38;9.53;;;7.20;;
10050;SDS011;5065;46.942;7.432;2023-05-16T11:03:18;9.07;;;5.87;;
10050;SDS011;5065;46.942;7.432;2023-05-16T11:05:52;9.13;;;6.43;;
10050;SDS011;5065;46.942;7.432;2023-05-16T11:08:25;11.50;;;6.17;;
10050;SDS011;5065;46.942;7.432;2023-05-16T11:13:54;10.00;;;7.07;;
10050;SDS011;5065;46.942;7.432;2023-05-16T11:16:27;8.23;;;7.10;;
10050;SDS011;5065;46.942;7.432;2023-05-16T11:18:58;8.90;;;7.17;;
10050;SDS011;5065;46.942;7.432;2023-05-16T11:24:31;11.13;;;6.90;;
10050;SDS011;5065;46.942;7.432;2023-05-16T11:27:00;7.63;;;6.63;;
10050;SDS011;5065;46.942;7.432;2023-05-16T11:29:28;8.73;;;6.60;;
10050;SDS011;5065;46.942;7.432;2023-05-16T11:31:57;7.57;;;6.40;;
10050;SDS011;5065;46.942;7.432;2023-05-16T11:34:26;7.23;;;6.47;;
10050;SDS011;5065;46.942;7.432;2023-05-16T11:36:54;9.10;;;7.00;;
10050;SDS011;5065;46.942;7.432;2023-05-16T11:39:22;7.60;;;6.13;;
10050;SDS011;5065;46.942;7.432;2023-05-16T11:41:49;9.03;;;6.80;;
10050;SDS011;5065;46.942;7.432;2023-05-16T11:44:17;10.07;;;6.50;;
10050;SDS011;5065;46.942;7.432;2023-05-16T11:46:44;9.90;;;6.63;;
10050;SDS011;5065;46.942;7.432;2023-05-16T11:49:11;8.20;;;6.50;;
10050;SDS011;5065;46.942;7.432;2023-05-16T11:51:43;6.83;;;6.07;;
10050;SDS011;5065;46.942;7.432;2023-05-16T11:54:10;7.60;;;6.80;;
10050;SDS011;5065;46.942;7.432;2023-05-16T11:56:38;12.70;;;11.00;;
10050;SDS011;5065;46.942;7.432;2023-05-16T11:59:06;9.20;;;8.23;;
10050;SDS011;5065;46.942;7.432;2023-05-16T12:01:34;11.03;;;6.30;;
10050;SDS011;5065;46.942;7.432;2023-05-16T12:04:06;7.53;;;6.10;;
10050;SDS011;5065;46.942;7.432;2023-05-16T12:06:34;8.30;;;6.20;;
10050;SDS011;5065;46.942;7.432;2023-05-16T12:09:03;8.97;;;6.40;;
10050;SDS011;5065;46.942;7.432;2023-05-16T12:11:35;7.87;;;6.30;;
10050;SDS011;5065;46.942;7.432;2023-05-16T12:14:03;7.50;;;6.60;;
10050;SDS011;5065;46.942;7.432;2023-05-16T12:16:31;10.70;;;7.07;;
10050;SDS011;5065;46.942;7.432;2023-05-16T12:18:58;10.30;;;6.37;;
10050;SDS011;5065;46.942;7.432;2023-05-16T12:21:27;7.93;;;7.13;;
10050;SDS011;5065;46.942;7.432;2023-05-16T12:23:54;7.17;;;6.43;;
10050;SDS011;5065;46.942;7.432;2023-05-16T12:26:27;13.30;;;6.03;;
10050;SDS011;5065;46.942;7.432;2023-05-16T12:28:56;8.23;;;6.13;;
10050;SDS011;5065;46.942;7.432;2023-05-16T12:31:27;8.67;;;7.23;;
10050;SDS011;5065;46.942;7.432;2023-05-16T12:33:55;17.93;;;14.83;;
10050;SDS011;5065;46.942;7.432;2023-05-16T12:36:23;8.77;;;7.33;;
10050;SDS011;5065;46.942;7.432;2023-05-16T12:38:53;11.50;;;8.60;;
10050;SDS011;5065;46.942;7.432;2023-05-16T12:41:21;9.77;;;7.67;;
10050;SDS011;5065;46.942;7.432;2023-05-16T12:43:50;8.43;;;7.27;;
10050;SDS011;5065;46.942;7.432;2023-05-16T12:46:31;10.07;;;7.90;;
10050;SDS011;5065;46.942;7.432;2023-05-16T12:49:00;10.37;;;8.17;;
10050;SDS011;5065;46.942;7.432;2023-05-16T12:51:29;15.37;;;8.60;;
10050;SDS011;5065;46.942;7.432;2023-05-16T12:54:05;10.77;;;9.07;;
10050;SDS011;5065;46.942;7.432;2023-05-16T12:56:34;11.40;;;8.43;;
10050;SDS011;5065;46.942;7.432;2023-05-16T12:59:03;10.53;;;8.23;;
10050;SDS011;5065;46.942;7.432;2023-05-16T13:01:31;11.40;;;8.50;;
10050;SDS011;5065;46.942;7.432;2023-05-16T13:03:59;10.00;;;8.83;;
10050;SDS011;5065;46.942;7.432;2023-05-16T13:06:26;10.20;;;8.57;;
10050;SDS011;5065;46.942;7.432;2023-05-16T13:08:54;12.80;;;9.80;;
10050;SDS011;5065;46.942;7.432;2023-05-16T13:11:21;11.67;;;9.33;;
10050;SDS011;5065;46.942;7.432;2023-05-16T13:13:49;12.43;;;9.43;;
10050;SDS011;5065;46.942;7.432;2023-05-16T13:16:17;15.40;;;9.33;;
10050;SDS011;5065;46.942;7.432;2023-05-16T13:18:45;14.60;;;9.67;;
10050;SDS011;5065;46.942;7.432;2023-05-16T13:21:13;14.53;;;9.63;;
10050;SDS011;5065;46.942;7.432;2023-05-16T13:23:43;15.07;;;9.83;;
10050;SDS011;5065;46.942;7.432;2023-05-16T13:26:10;15.33;;;10.10;;
10050;SDS011;5065;46.942;7.432;2023-05-16T13:28:38;12.37;;;9.47;;
10050;SDS011;5065;46.942;7.432;2023-05-16T13:31:05;11.17;;;8.43;;
10050;SDS011;5065;46.942;7.432;2023-05-16T13:33:35;19.40;;;9.60;;
10050;SDS011;5065;46.942;7.432;2023-05-16T13:36:03;12.53;;;8.43;;
10050;SDS011;5065;46.942;7.432;2023-05-16T13:38:32;11.90;;;8.97;;
10050;SDS011;5065;46.942;7.432;2023-05-16T13:41:00;10.20;;;7.83;;
10050;SDS011;5065;46.942;7.432;2023-05-16T13:43:27;10.80;;;9.33;;
10050;SDS011;5065;46.942;7.432;2023-05-16T13:45:55;11.50;;;8.67;;
10050;SDS011;5065;46.942;7.432;2023-05-16T13:48:22;13.73;;;8.57;;
10050;SDS011;5065;46.942;7.432;2023-05-16T13:50:51;15.87;;;12.57;;
10050;SDS011;5065;46.942;7.432;2023-05-16T13:53:20;13.17;;;8.47;;
10050;SDS011;5065;46.942;7.432;2023-05-16T13:55:47;11.17;;;9.17;;
10050;SDS011;5065;46.942;7.432;2023-05-16T13:58:14;11.87;;;9.50;;
10050;SDS011;5065;46.942;7.432;2023-05-16T14:00:41;13.10;;;9.40;;
10050;SDS011;5065;46.942;7.432;2023-05-16T14:03:09;19.10;;;9.97;;
10050;SDS011;5065;46.942;7.432;2023-05-16T14:05:36;10.67;;;8.20;;
10050;SDS011;5065;46.942;7.432;2023-05-16T14:08:06;10.80;;;8.37;;
10050;SDS011;5065;46.942;7.432;2023-05-16T14:10:33;13.53;;;8.50;;
10050;SDS011;5065;46.942;7.432;2023-05-16T14:13:00;10.87;;;8.10;;
10050;SDS011;5065;46.942;7.432;2023-05-16T14:15:27;11.23;;;8.17;;
10050;SDS011;5065;46.942;7.432;2023-05-16T14:17:54;11.33;;;7.97;;
10050;SDS011;5065;46.942;7.432;2023-05-16T14:20:22;10.07;;;8.43;;
10050;SDS011;5065;46.942;7.432;2023-05-16T14:22:49;9.87;;;7.70;;
10050;SDS011;5065;46.942;7.432;2023-05-16T14:25:17;11.53;;;7.73;;
10050;SDS011;5065;46.942;7.432;2023-05-16T14:27:45;9.40;;;7.60;;
10050;SDS011;5065;46.942;7.432;2023-05-16T14:30:12;10.47;;;7.17;;
10050;SDS011;5065;46.942;7.432;2023-05-16T14:32:39;14.47;;;7.27;;
10050;SDS011;5065;46.942;7.432;2023-05-16T14:35:10;9.70;;;6.80;;
10050;SDS011;5065;46.942;7.432;2023-05-16T14:37:37;9.40;;;7.00;;
10050;SDS011;5065;46.942;7.432;2023-05-16T14:40:05;8.80;;;6.77;;
10050;SDS011;5065;46.942;7.432;2023-05-16T14:42:35;9.37;;;6.37;;
10050;SDS011;5065;46.942;7.432;2023-05-16T14:45:04;9.97;;;6.73;;
10050;SDS011;5065;46.942;7.432;2023-05-16T14:47:31;7.97;;;5.90;;
10050;SDS011;5065;46.942;7.432;2023-05-16T14:49:59;17.23;;;12.20;;
10050;SDS011;5065;46.942;7.432;2023-05-16T14:52:26;9.83;;;7.90;;
10050;SDS011;5065;46.942;7.432;2023-05-16T14:54:53;9.23;;;6.07;;
10050;SDS011;5065;46.942;7.432;2023-05-16T14:57:20;8.60;;;6.00;;
10050;SDS011;5065;46.942;7.432;2023-05-16T14:59:49;7.60;;;5.73;;
10050;SDS011;5065;46.942;7.432;2023-05-16T15:02:17;9.37;;;6.10;;
10050;SDS011;5065;46.942;7.432;2023-05-16T15:04:50;5.90;;;5.30;;
10050;SDS011;5065;46.942;7.432;2023-05-16T15:07:20;5.80;;;4.97;;
10050;SDS011;5065;46.942;7.432;2023-05-16T15:09:48;5.10;;;4.60;;
10050;SDS011;5065;46.942;7.432;2023-05-16T15:12:15;5.77;;;5.03;;